SBJP/JPA METAR and TAF weather

Enter ICAO airport designator
Station Type Date Time Source
SBJP METAR 2019/08/25 06:00 UTC NOAA

SBJP 250600Z 16005KT 9999 -RA BKN018 23/23 Q1018


Station Type Date Time Source
SBJP Decoded METAR 2019/08/25 06:00 UTC NOAA

Station name not available
Aug 25, 2019 - 02:00 AM EDT / 2019.08.25 0600 UTC
Wind: from the SSE (160 degrees) at 6 MPH (5 KT):0
Visibility: greater than 7 mile(s):0
Sky conditions: mostly cloudy
Weather: light rain
Temperature: 73 F (23 C)
Dew Point: 73 F (23 C)
Relative Humidity: 100%
Pressure (altimeter): 30.06 in. Hg (1018 hPa)
ob: SBJP 250600Z 16005KT 9999 -RA BKN018 23/23 Q1018
cycle: 6

Station Type Date Time Source
SBJP TAF 2019/08/25 06:18 UTC NOAA

TAF TAF SBJP 250400Z 2506/2606 21006KT 9999 SCT020 TN22/2506Z TX29/2517Z
BECMG 2513/2515 16015KT BKN020
BECMG 2519/2521 SCT020
BECMG 2523/2601 17005KT SCT017
RMK PEN

Example: see airport list